createdAt,value
2023-03-15T00:02:36.873Z,3.44
2023-03-15T00:05:24.687Z,3.44
2023-03-15T00:08:13.235Z,3.42
2023-03-15T00:11:01.773Z,3.42
2023-03-15T00:13:51.547Z,3.45
2023-03-15T00:16:39.397Z,3.46
2023-03-15T00:19:27.538Z,3.46
2023-03-15T00:22:15.487Z,3.43
2023-03-15T00:25:03.171Z,3.36
2023-03-15T00:27:50.948Z,3.35
2023-03-15T00:30:40.223Z,3.34
2023-03-15T00:33:27.837Z,3.31
2023-03-15T00:36:16.049Z,3.29
2023-03-15T00:39:04.335Z,3.28
2023-03-15T00:41:51.736Z,3.28
2023-03-15T00:44:39.757Z,3.27
2023-03-15T00:47:29.162Z,3.24
2023-03-15T00:50:17.523Z,3.25
2023-03-15T00:53:05.483Z,3.25
2023-03-15T00:55:53.425Z,3.22
2023-03-15T00:58:42.240Z,3.25
2023-03-15T01:01:31.680Z,3.27
2023-03-15T01:04:21.108Z,3.23
2023-03-15T01:07:09.243Z,3.18
2023-03-15T01:09:57.266Z,3.10
2023-03-15T01:12:45.653Z,3.09
2023-03-15T01:15:33.719Z,3.05
2023-03-15T01:18:21.826Z,3.03
2023-03-15T01:21:13.339Z,3.01
2023-03-15T01:24:01.056Z,2.96
2023-03-15T01:26:48.986Z,2.92
2023-03-15T01:29:36.896Z,2.90
2023-03-15T01:32:24.886Z,2.88
2023-03-15T01:35:13.158Z,2.84
2023-03-15T01:38:02.414Z,2.78
2023-03-15T01:40:50.438Z,2.77
2023-03-15T01:43:38.289Z,2.78
2023-03-15T01:46:28.573Z,2.77
2023-03-15T01:49:22.825Z,2.71
2023-03-15T01:52:14.653Z,2.71
2023-03-15T01:55:08.580Z,2.69
2023-03-15T01:57:59.642Z,2.66
2023-03-15T02:00:47.494Z,2.68
2023-03-15T02:03:39.794Z,2.65
2023-03-15T02:06:28.162Z,2.60
2023-03-15T02:09:19.128Z,2.60
2023-03-15T02:12:10.072Z,2.63
2023-03-15T02:14:59.190Z,2.60
2023-03-15T02:17:49.922Z,2.59
2023-03-15T02:20:47.324Z,2.57
2023-03-15T02:23:35.442Z,2.56
2023-03-15T02:26:27.556Z,2.56
2023-03-15T02:29:16.900Z,2.54
2023-03-15T02:32:05.176Z,2.51
2023-03-15T02:34:53.123Z,2.51
2023-03-15T02:37:45.884Z,2.47
2023-03-15T02:40:33.657Z,2.47
2023-03-15T02:43:26.178Z,2.42
2023-03-15T02:46:17.096Z,2.42
2023-03-15T02:49:05.911Z,2.41
2023-03-15T02:51:53.887Z,2.40
2023-03-15T02:54:43.394Z,2.40
2023-03-15T02:57:31.363Z,2.36
2023-03-15T03:00:19.892Z,2.35
2023-03-15T03:03:09.063Z,2.34
2023-03-15T03:05:56.875Z,2.32
2023-03-15T03:08:47.194Z,2.30
2023-03-15T03:11:35.218Z,2.31
2023-03-15T03:14:23.847Z,2.28
2023-03-15T03:17:11.769Z,2.24
2023-03-15T03:20:01.063Z,2.20
2023-03-15T03:22:48.840Z,2.17
2023-03-15T03:25:37.502Z,2.14
2023-03-15T03:28:27.320Z,2.14
2023-03-15T03:31:21.086Z,2.09
2023-03-15T03:34:09.546Z,2.05
2023-03-15T03:36:58.972Z,2.01
2023-03-15T03:39:47.093Z,2.00
2023-03-15T03:42:35.060Z,1.94
2023-03-15T03:45:23.142Z,1.92
2023-03-15T03:48:11.122Z,1.87
2023-03-15T03:50:59.658Z,1.81
2023-03-15T03:53:48.782Z,1.80
2023-03-15T03:56:36.736Z,1.74
2023-03-15T03:59:24.642Z,1.68
2023-03-15T04:02:12.900Z,1.66
2023-03-15T04:05:00.916Z,1.64
2023-03-15T04:07:48.903Z,1.60
2023-03-15T04:10:38.253Z,1.58
2023-03-15T04:13:26.996Z,1.52
2023-03-15T04:16:14.804Z,1.48
2023-03-15T04:19:03.274Z,1.44
2023-03-15T04:21:52.454Z,1.43
2023-03-15T04:24:40.486Z,1.40
2023-03-15T04:27:30.259Z,1.35
2023-03-15T04:30:18.749Z,1.30
2023-03-15T04:33:10.020Z,1.24
2023-03-15T04:35:58.060Z,1.20
2023-03-15T04:38:47.483Z,1.17
2023-03-15T04:41:36.130Z,1.14
2023-03-15T04:44:26.574Z,1.12
2023-03-15T04:47:14.794Z,1.08
2023-03-15T04:50:02.519Z,1.03
2023-03-15T04:52:51.440Z,1.01
2023-03-15T04:55:39.581Z,0.94
2023-03-15T04:58:27.750Z,0.90
2023-03-15T05:01:17.169Z,0.86
2023-03-15T05:04:05.221Z,0.85
2023-03-15T05:06:53.159Z,0.82
2023-03-15T05:09:41.433Z,0.80
2023-03-15T05:12:29.668Z,0.76
2023-03-15T05:15:17.922Z,0.74
2023-03-15T05:18:06.968Z,0.71
2023-03-15T05:20:55.916Z,0.70
2023-03-15T05:23:43.948Z,0.68
2023-03-15T05:26:31.921Z,0.65
2023-03-15T05:29:19.880Z,0.62
2023-03-15T05:32:08.484Z,0.58
2023-03-15T05:34:57.878Z,0.55
2023-03-15T05:37:45.634Z,0.52
2023-03-15T05:40:33.986Z,0.49
2023-03-15T05:43:22.192Z,0.47
2023-03-15T05:46:09.849Z,0.47
2023-03-15T05:49:01.099Z,0.47
2023-03-15T05:51:50.462Z,0.43
2023-03-15T05:54:38.239Z,0.42
2023-03-15T05:57:26.289Z,0.41
2023-03-15T06:00:16.362Z,0.40
2023-03-15T06:03:04.752Z,0.36
2023-03-15T06:05:52.578Z,0.34
2023-03-15T06:08:41.854Z,0.30
2023-03-15T06:11:29.877Z,0.27
2023-03-15T06:14:18.025Z,0.26
2023-03-15T06:17:05.906Z,0.25
2023-03-15T06:19:53.736Z,0.26
2023-03-15T06:22:41.688Z,0.23
2023-03-15T06:25:30.982Z,0.22
2023-03-15T06:28:19.075Z,0.28
2023-03-15T06:31:09.284Z,0.31
2023-03-15T06:33:57.121Z,0.27
2023-03-15T06:36:45.408Z,0.28
2023-03-15T06:39:34.463Z,0.31
2023-03-15T06:42:23.771Z,0.31
2023-03-15T06:45:16.409Z,0.30
2023-03-15T06:48:04.187Z,0.31
2023-03-15T06:50:52.217Z,0.33
2023-03-15T06:53:39.934Z,0.38
2023-03-15T06:56:27.785Z,0.48
2023-03-15T06:59:16.924Z,0.50
2023-03-15T07:02:04.773Z,0.50
2023-03-15T07:04:52.631Z,0.61
2023-03-15T07:07:40.728Z,0.54
2023-03-15T07:10:28.482Z,0.70
2023-03-15T07:13:16.456Z,0.73
2023-03-15T07:16:06.929Z,0.75
2023-03-15T07:18:56.178Z,0.76
2023-03-15T07:21:43.939Z,0.79
2023-03-15T07:24:32.186Z,0.84
2023-03-15T07:27:20.124Z,0.96
2023-03-15T07:30:09.781Z,1.07
2023-03-15T07:32:59.202Z,1.18
2023-03-15T07:35:47.108Z,1.26
2023-03-15T07:38:36.584Z,1.30
2023-03-15T07:41:24.494Z,1.34
2023-03-15T07:44:12.449Z,1.50
2023-03-15T07:47:01.110Z,1.55
2023-03-15T07:49:50.757Z,1.74
2023-03-15T07:52:38.729Z,1.93
2023-03-15T07:55:26.987Z,1.95
2023-03-15T07:58:15.086Z,1.99
2023-03-15T08:01:04.291Z,2.16
2023-03-15T08:03:52.247Z,2.13
2023-03-15T08:06:41.378Z,2.18
2023-03-15T08:09:29.494Z,2.21
2023-03-15T08:12:17.496Z,2.23
2023-03-15T08:15:06.196Z,2.33
2023-03-15T08:17:54.373Z,2.40
2023-03-15T08:20:42.155Z,2.44
2023-03-15T08:23:32.384Z,2.44
2023-03-15T08:26:20.373Z,2.51
2023-03-15T08:29:09.497Z,2.65
2023-03-15T08:31:57.385Z,2.77
2023-03-15T08:34:46.852Z,2.97
2023-03-15T08:37:34.935Z,3.02
2023-03-15T08:40:27.462Z,3.08
2023-03-15T08:43:15.571Z,3.16
2023-03-15T08:46:03.617Z,3.31
2023-03-15T08:48:51.519Z,3.29
2023-03-15T08:51:40.004Z,3.68
2023-03-15T08:54:28.619Z,3.71
2023-03-15T08:57:17.992Z,3.89
2023-03-15T09:00:09.305Z,3.84
2023-03-15T09:02:57.202Z,3.84
2023-03-15T09:05:44.967Z,3.93
2023-03-15T09:08:33.450Z,3.98
2023-03-15T09:11:21.743Z,4.15
2023-03-15T09:14:10.715Z,4.25
2023-03-15T09:16:58.736Z,4.21
2023-03-15T09:19:46.625Z,4.29
2023-03-15T09:22:39.564Z,4.37
2023-03-15T09:25:27.676Z,4.47
2023-03-15T09:28:16.161Z,4.59
2023-03-15T09:31:07.892Z,4.62
2023-03-15T09:33:56.590Z,4.73
2023-03-15T09:36:44.437Z,4.76
2023-03-15T09:39:33.889Z,4.76
2023-03-15T09:42:28.670Z,4.80
2023-03-15T09:45:25.551Z,4.76
2023-03-15T09:48:20.841Z,4.67
2023-03-15T09:51:15.006Z,4.71
2023-03-15T09:54:09.006Z,4.66
2023-03-15T09:57:02.300Z,4.59
2023-03-15T09:59:54.029Z,4.62
2023-03-15T10:02:48.807Z,4.61
2023-03-15T10:05:43.635Z,4.54
2023-03-15T10:08:31.754Z,4.53
2023-03-15T10:11:28.327Z,4.43
2023-03-15T10:14:28.957Z,4.49
2023-03-15T10:17:22.276Z,4.51
2023-03-15T10:20:13.106Z,4.48
2023-03-15T10:23:11.170Z,4.50
2023-03-15T10:25:59.601Z,4.45
2023-03-15T10:28:48.514Z,4.37
2023-03-15T10:31:44.954Z,4.41
2023-03-15T10:34:33.425Z,4.44
2023-03-15T10:37:23.680Z,4.47
2023-03-15T10:40:16.177Z,4.42
2023-03-15T10:43:13.543Z,4.36
2023-03-15T10:46:03.642Z,4.44
2023-03-15T10:48:59.087Z,4.42
2023-03-15T10:51:48.315Z,4.48
2023-03-15T10:54:37.332Z,4.30
2023-03-15T10:57:34.473Z,4.46
2023-03-15T11:00:29.536Z,4.32
2023-03-15T11:03:19.622Z,4.45
2023-03-15T11:06:22.627Z,4.44
2023-03-15T11:09:12.159Z,4.39
2023-03-15T11:12:02.422Z,4.43
2023-03-15T11:14:54.580Z,4.41
2023-03-15T11:17:46.256Z,4.42
2023-03-15T11:20:38.218Z,4.38
2023-03-15T11:23:29.222Z,4.37
2023-03-15T11:26:32.312Z,4.38
2023-03-15T11:29:25.203Z,4.34
2023-03-15T11:32:20.690Z,4.33
2023-03-15T11:35:13.622Z,4.36
2023-03-15T11:38:15.455Z,4.39
2023-03-15T11:41:12.610Z,4.39
2023-03-15T11:44:07.561Z,4.43
2023-03-15T11:47:00.154Z,4.43
2023-03-15T11:49:52.364Z,4.47
2023-03-15T11:52:41.314Z,4.48
2023-03-15T11:55:30.765Z,4.44
2023-03-15T11:58:33.672Z,4.46
2023-03-15T12:01:27.423Z,4.49
2023-03-15T12:04:52.214Z,4.55
2023-03-15T12:07:59.797Z,4.47
2023-03-15T12:10:49.707Z,4.46
2023-03-15T12:13:37.528Z,4.45
2023-03-15T12:16:28.746Z,4.50
2023-03-15T12:19:18.930Z,4.50
2023-03-15T12:22:14.945Z,4.54
2023-03-15T12:25:13.419Z,4.57
2023-03-15T12:28:06.273Z,4.59
2023-03-15T12:30:59.036Z,4.66
2023-03-15T12:33:50.691Z,4.73
2023-03-15T12:36:40.604Z,4.82
2023-03-15T12:39:45.497Z,4.92
2023-03-15T12:43:10.501Z,4.97
2023-03-15T12:45:59.872Z,5.01
2023-03-15T12:49:12.202Z,5.10
2023-03-15T12:52:01.483Z,5.17
2023-03-15T12:54:55.054Z,5.22
2023-03-15T12:57:50.145Z,5.25
2023-03-15T13:00:41.405Z,5.24
2023-03-15T13:03:34.740Z,5.26
2023-03-15T13:06:36.353Z,5.17
2023-03-15T13:09:51.060Z,5.29
2023-03-15T13:12:46.108Z,5.36
2023-03-15T13:16:00.194Z,5.38
2023-03-15T13:19:00.490Z,5.40
2023-03-15T13:22:06.662Z,5.43
2023-03-15T13:25:04.454Z,5.41
2023-03-15T13:27:56.176Z,5.47
2023-03-15T13:30:49.903Z,5.47
2023-03-15T13:33:37.988Z,5.49
2023-03-15T13:36:28.805Z,5.50
2023-03-15T13:39:23.328Z,5.51
2023-03-15T13:42:20.898Z,5.57
2023-03-15T13:45:17.140Z,5.55
2023-03-15T13:48:07.861Z,5.53
2023-03-15T13:50:57.192Z,5.60
2023-03-15T13:53:50.175Z,5.64
2023-03-15T13:56:49.244Z,5.58
2023-03-15T13:59:42.843Z,5.70
2023-03-15T14:02:38.627Z,5.70
2023-03-15T14:05:30.397Z,5.78
2023-03-15T14:08:23.665Z,5.81
2023-03-15T14:11:18.713Z,5.83
2023-03-15T14:14:23.626Z,5.89
2023-03-15T14:17:25.519Z,6.03
2023-03-15T14:20:17.392Z,5.87
2023-03-15T14:23:07.305Z,6.07
2023-03-15T14:25:56.954Z,6.20
2023-03-15T14:28:49.675Z,6.23
2023-03-15T14:31:42.309Z,6.30
2023-03-15T14:34:35.789Z,6.39
2023-03-15T14:37:31.711Z,6.47
2023-03-15T14:40:35.621Z,6.59
2023-03-15T14:43:23.656Z,6.69
2023-03-15T14:46:12.481Z,6.78
2023-03-15T14:49:00.170Z,6.87
2023-03-15T14:51:49.337Z,7.01
2023-03-15T14:54:37.038Z,7.02
2023-03-15T14:57:26.525Z,7.01
2023-03-15T15:00:17.338Z,7.18
2023-03-15T15:03:08.345Z,7.31
2023-03-15T15:05:56.108Z,7.36
2023-03-15T15:08:47.821Z,7.46
2023-03-15T15:11:35.471Z,7.73
2023-03-15T15:14:24.850Z,7.67
2023-03-15T15:17:12.746Z,7.89
2023-03-15T15:20:00.622Z,8.01
2023-03-15T15:22:48.622Z,8.13
2023-03-15T15:25:37.227Z,8.13
2023-03-15T15:28:34.860Z,8.12
2023-03-15T15:31:26.228Z,8.23
2023-03-15T15:34:14.372Z,8.35
2023-03-15T15:37:02.643Z,8.61
2023-03-15T15:39:50.975Z,8.81
2023-03-15T15:42:38.948Z,8.89
2023-03-15T15:45:27.124Z,9.05
2023-03-15T15:48:16.459Z,9.09
2023-03-15T15:51:04.106Z,9.08
2023-03-15T15:53:52.480Z,8.91
2023-03-15T15:56:44.188Z,8.99
2023-03-15T15:59:32.014Z,9.07
2023-03-15T16:02:22.425Z,8.91
2023-03-15T16:05:12.431Z,8.96
2023-03-15T16:08:04.876Z,9.05
2023-03-15T16:10:53.005Z,9.06
2023-03-15T16:13:41.388Z,8.99
2023-03-15T16:16:29.258Z,8.93
2023-03-15T16:19:17.248Z,8.85
2023-03-15T16:22:07.847Z,8.64
2023-03-15T16:24:58.786Z,8.58
2023-03-15T16:27:46.782Z,8.25
2023-03-15T16:30:35.021Z,8.03
2023-03-15T16:33:23.842Z,7.94
2023-03-15T16:36:19.141Z,7.71
2023-03-15T16:39:11.455Z,7.53
2023-03-15T16:41:59.490Z,7.33
2023-03-15T16:44:47.640Z,7.17
2023-03-15T16:47:35.704Z,6.96
2023-03-15T16:50:23.955Z,6.68
2023-03-15T16:53:13.812Z,6.35
2023-03-15T16:56:03.818Z,6.16
2023-03-15T16:58:54.096Z,6.04
2023-03-15T17:01:42.178Z,5.93
2023-03-15T17:04:30.162Z,5.77
2023-03-15T17:07:19.787Z,5.62
2023-03-15T17:10:11.471Z,5.41
2023-03-15T17:13:02.144Z,5.28
2023-03-15T17:15:49.905Z,5.13
2023-03-15T17:18:38.062Z,5.05
2023-03-15T17:21:28.068Z,4.84
2023-03-15T17:24:16.205Z,4.87
2023-03-15T17:27:04.803Z,4.71
2023-03-15T17:29:54.059Z,4.41
2023-03-15T17:32:42.140Z,4.35
2023-03-15T17:35:33.714Z,4.35
2023-03-15T17:38:22.719Z,4.28
2023-03-15T17:41:21.235Z,4.20
2023-03-15T17:44:11.345Z,4.12
2023-03-15T17:47:01.324Z,4.03
2023-03-15T17:49:49.770Z,3.95
2023-03-15T17:52:38.022Z,3.88
2023-03-15T17:55:27.764Z,3.80
2023-03-15T17:58:20.241Z,3.73
2023-03-15T18:01:14.493Z,3.68
2023-03-15T18:04:03.777Z,3.63
2023-03-15T18:06:51.565Z,3.56
2023-03-15T18:09:39.590Z,3.49
2023-03-15T18:12:27.515Z,3.44
2023-03-15T18:15:17.078Z,3.38
2023-03-15T18:18:06.410Z,3.33
2023-03-15T18:20:55.558Z,3.28
2023-03-15T18:23:44.391Z,3.20
2023-03-15T18:26:32.503Z,3.15
2023-03-15T18:29:20.700Z,3.09
2023-03-15T18:32:08.558Z,3.03
2023-03-15T18:34:57.089Z,2.97
2023-03-15T18:37:46.798Z,2.89
2023-03-15T18:40:35.822Z,2.83
2023-03-15T18:43:23.895Z,2.77
2023-03-15T18:46:11.631Z,2.71
2023-03-15T18:48:59.632Z,2.65
2023-03-15T18:51:47.557Z,2.58
2023-03-15T18:54:37.139Z,2.50
2023-03-15T18:57:25.271Z,2.42
2023-03-15T19:00:15.250Z,2.32
2023-03-15T19:03:04.386Z,2.24
2023-03-15T19:05:52.274Z,2.16
2023-03-15T19:08:41.465Z,2.08
2023-03-15T19:11:32.131Z,2.04
2023-03-15T19:14:19.852Z,1.95
2023-03-15T19:17:08.063Z,1.83
2023-03-15T19:19:55.761Z,1.75
2023-03-15T19:22:45.209Z,1.68
2023-03-15T19:25:33.290Z,1.60
2023-03-15T19:28:22.687Z,1.51
2023-03-15T19:31:11.352Z,1.44
2023-03-15T19:33:59.250Z,1.39
2023-03-15T19:36:46.981Z,1.29
2023-03-15T19:39:34.892Z,1.19
2023-03-15T19:42:22.925Z,1.09
2023-03-15T19:45:13.360Z,1.01
2023-03-15T19:48:01.487Z,0.95
2023-03-15T19:50:49.528Z,0.89
2023-03-15T19:53:37.775Z,0.84
2023-03-15T19:56:25.691Z,0.79
2023-03-15T19:59:14.163Z,0.76
2023-03-15T20:02:03.726Z,0.69
2023-03-15T20:04:51.480Z,0.63
2023-03-15T20:07:40.069Z,0.62
2023-03-15T20:10:28.290Z,0.57
2023-03-15T20:13:16.271Z,0.53
2023-03-15T20:16:04.831Z,0.49
2023-03-15T20:18:55.736Z,0.41
2023-03-15T20:21:44.916Z,0.35
2023-03-15T20:24:33.037Z,0.29
2023-03-15T20:27:21.029Z,0.24
2023-03-15T20:30:11.017Z,0.21
2023-03-15T20:32:58.964Z,0.19
2023-03-15T20:35:48.343Z,0.13
2023-03-15T20:38:37.225Z,0.08
2023-03-15T20:41:25.159Z,0.03
2023-03-15T20:44:12.885Z,0.00
2023-03-15T20:47:00.740Z,-0.07
2023-03-15T20:49:48.542Z,-0.14
2023-03-15T20:52:37.913Z,-0.20
2023-03-15T20:55:26.001Z,-0.28
2023-03-15T20:58:14.176Z,-0.33
2023-03-15T21:01:07.211Z,-0.33
2023-03-15T21:03:57.433Z,-0.37
2023-03-15T21:06:45.754Z,-0.41
2023-03-15T21:09:35.568Z,-0.44
2023-03-15T21:12:23.623Z,-0.48
2023-03-15T21:15:15.417Z,-0.48
2023-03-15T21:18:03.328Z,-0.52
2023-03-15T21:20:58.214Z,-0.56
2023-03-15T21:23:46.302Z,-0.60
2023-03-15T21:26:35.671Z,-0.64
2023-03-15T21:29:23.705Z,-0.68
2023-03-15T21:32:11.725Z,-0.70
2023-03-15T21:34:59.648Z,-0.73
2023-03-15T21:37:47.613Z,-0.78
2023-03-15T21:40:35.522Z,-0.81
2023-03-15T21:43:24.928Z,-0.85
2023-03-15T21:46:14.236Z,-0.90
2023-03-15T21:49:02.731Z,-0.96
2023-03-15T21:51:51.918Z,-0.99
2023-03-15T21:54:39.755Z,-1.04
2023-03-15T21:57:27.767Z,-1.07
2023-03-15T22:00:19.307Z,-1.16
2023-03-15T22:03:07.202Z,-1.19
2023-03-15T22:05:55.257Z,-1.23
2023-03-15T22:08:43.357Z,-1.25
2023-03-15T22:11:31.268Z,-1.28
2023-03-15T22:14:19.847Z,-1.31
2023-03-15T22:17:09.209Z,-1.34
2023-03-15T22:19:56.931Z,-1.35
2023-03-15T22:22:45.652Z,-1.36
2023-03-15T22:25:33.376Z,-1.42
2023-03-15T22:28:21.349Z,-1.47
2023-03-15T22:31:11.636Z,-1.50
2023-03-15T22:34:02.963Z,-1.54
2023-03-15T22:36:52.825Z,-1.58
2023-03-15T22:39:42.030Z,-1.62
2023-03-15T22:42:29.711Z,-1.63
2023-03-15T22:45:17.572Z,-1.67
2023-03-15T22:48:05.478Z,-1.71
2023-03-15T22:50:59.877Z,-1.73
2023-03-15T22:53:48.023Z,-1.75
2023-03-15T22:56:36.316Z,-1.82
2023-03-15T22:59:28.919Z,-1.82
2023-03-15T23:02:16.620Z,-1.83
2023-03-15T23:05:04.761Z,-1.85
2023-03-15T23:07:53.616Z,-1.89
2023-03-15T23:10:42.914Z,-1.91
2023-03-15T23:13:31.066Z,-1.96
2023-03-15T23:16:19.740Z,-1.99
2023-03-15T23:19:07.710Z,-2.04
2023-03-15T23:21:55.580Z,-2.04
2023-03-15T23:24:45.940Z,-2.08
2023-03-15T23:27:33.981Z,-2.05
2023-03-15T23:30:22.271Z,-2.06
2023-03-15T23:33:10.177Z,-2.07
2023-03-15T23:35:58.585Z,-2.09
2023-03-15T23:38:46.656Z,-2.09
2023-03-15T23:41:36.233Z,-2.13
2023-03-15T23:44:24.064Z,-2.15
2023-03-15T23:47:12.336Z,-2.19
2023-03-15T23:50:02.426Z,-2.19
2023-03-15T23:52:50.568Z,-2.19
2023-03-15T23:55:38.582Z,-2.22
2023-03-15T23:58:27.948Z,-2.26
